createdAt,value
2018-07-26T00:01:16.683Z,7.73
2018-07-26T00:03:45.659Z,8.33
2018-07-26T00:06:14.311Z,7.50
2018-07-26T00:08:42.939Z,8.20
2018-07-26T00:11:12.192Z,8.10
2018-07-26T00:13:40.987Z,7.77
2018-07-26T00:16:09.743Z,7.80
2018-07-26T00:18:38.423Z,7.53
2018-07-26T00:21:07.023Z,8.10
2018-07-26T00:23:35.629Z,8.90
2018-07-26T00:26:04.389Z,8.37
2018-07-26T00:28:33.194Z,8.17
2018-07-26T00:31:01.902Z,8.70
2018-07-26T00:33:30.464Z,8.63
2018-07-26T00:35:59.032Z,8.47
2018-07-26T00:38:27.562Z,9.17
2018-07-26T00:40:56.325Z,8.80
2018-07-26T00:43:24.986Z,9.40
2018-07-26T00:45:53.585Z,9.60
2018-07-26T00:48:22.227Z,9.30
2018-07-26T00:50:50.752Z,9.93
2018-07-26T00:53:19.370Z,9.03
2018-07-26T00:55:48.315Z,8.67
2018-07-26T00:58:17.242Z,10.03
2018-07-26T01:00:45.924Z,9.23
2018-07-26T01:03:14.721Z,9.80
2018-07-26T01:05:43.358Z,9.80
2018-07-26T01:08:12.140Z,9.47
2018-07-26T01:10:40.872Z,9.67
2018-07-26T01:13:10.293Z,9.33
2018-07-26T01:15:39.082Z,9.97
2018-07-26T01:18:09.073Z,10.10
2018-07-26T01:20:37.829Z,9.80
2018-07-26T01:23:06.580Z,9.83
2018-07-26T01:25:35.472Z,9.37
2018-07-26T01:28:04.333Z,9.73
2018-07-26T01:30:33.071Z,9.13
2018-07-26T01:33:01.805Z,9.80
2018-07-26T01:35:30.491Z,10.13
2018-07-26T01:37:59.361Z,10.30
2018-07-26T01:40:28.078Z,9.80
2018-07-26T01:43:07.855Z,10.07
2018-07-26T01:45:36.617Z,9.70
2018-07-26T01:48:05.444Z,9.57
2018-07-26T01:50:34.225Z,10.00
2018-07-26T01:53:03.013Z,9.53
2018-07-26T01:55:31.839Z,10.00
2018-07-26T01:58:00.458Z,10.00
2018-07-26T02:00:29.128Z,8.93
2018-07-26T02:02:59.270Z,9.00
2018-07-26T02:05:28.043Z,10.00
2018-07-26T02:07:56.641Z,9.73
2018-07-26T02:10:25.296Z,9.97
2018-07-26T02:12:53.941Z,10.07
2018-07-26T02:15:22.602Z,9.90
2018-07-26T02:17:51.259Z,10.40
2018-07-26T02:20:20.108Z,10.30
2018-07-26T02:22:48.844Z,9.37
2018-07-26T02:25:17.633Z,9.77
2018-07-26T02:27:46.339Z,9.93
2018-07-26T02:30:15.063Z,9.30
2018-07-26T02:32:43.745Z,9.87
2018-07-26T02:35:12.422Z,9.43
2018-07-26T02:37:41.228Z,10.43
2018-07-26T02:40:10.692Z,10.77
2018-07-26T02:42:39.368Z,10.00
2018-07-26T02:45:08.083Z,10.43
2018-07-26T02:47:36.758Z,10.13
2018-07-26T02:50:05.492Z,10.37
2018-07-26T02:52:34.313Z,10.87
2018-07-26T02:55:03.092Z,10.70
2018-07-26T02:57:31.743Z,10.80
2018-07-26T03:00:00.561Z,10.67
2018-07-26T03:02:29.347Z,10.67
2018-07-26T03:04:58.208Z,10.17
2018-07-26T03:07:27.018Z,10.60
2018-07-26T03:09:55.724Z,10.43
2018-07-26T03:12:24.485Z,10.27
2018-07-26T03:14:53.428Z,10.67
2018-07-26T03:17:22.046Z,10.43
2018-07-26T03:19:50.941Z,10.07
2018-07-26T03:22:19.653Z,9.97
2018-07-26T03:24:48.394Z,10.33
2018-07-26T03:27:17.040Z,11.53
2018-07-26T03:29:45.808Z,10.20
2018-07-26T03:32:14.453Z,10.47
2018-07-26T03:34:43.217Z,10.07
2018-07-26T03:37:11.963Z,10.13
2018-07-26T03:39:40.611Z,9.90
2018-07-26T03:42:09.312Z,10.23
2018-07-26T03:44:37.942Z,10.63
2018-07-26T03:47:06.717Z,10.23
2018-07-26T03:49:35.594Z,10.43
2018-07-26T03:52:04.226Z,10.73
2018-07-26T03:54:33.028Z,9.93
2018-07-26T03:57:01.712Z,11.00
2018-07-26T03:59:30.347Z,11.40
2018-07-26T04:01:59.024Z,10.57
2018-07-26T04:04:27.740Z,10.33
2018-07-26T04:06:56.411Z,11.00
2018-07-26T04:09:25.050Z,10.70
2018-07-26T04:11:53.601Z,11.33
2018-07-26T04:14:22.185Z,11.90
2018-07-26T04:16:50.781Z,11.33
2018-07-26T04:19:19.506Z,11.77
2018-07-26T04:21:48.149Z,11.00
2018-07-26T04:24:16.852Z,11.07
2018-07-26T04:26:45.562Z,10.87
2018-07-26T04:29:14.318Z,11.57
2018-07-26T04:31:43.029Z,11.83
2018-07-26T04:34:12.528Z,11.00
2018-07-26T04:36:41.155Z,10.97
2018-07-26T04:39:10.473Z,10.87
2018-07-26T04:41:39.151Z,11.43
2018-07-26T04:44:07.926Z,11.80
2018-07-26T04:46:36.647Z,11.40
2018-07-26T04:49:05.330Z,11.60
2018-07-26T04:51:34.128Z,11.90
2018-07-26T04:54:03.020Z,11.73
2018-07-26T04:56:31.775Z,11.73
2018-07-26T04:59:00.446Z,11.10
2018-07-26T05:01:29.078Z,11.90
2018-07-26T05:03:58.650Z,12.37
2018-07-26T05:06:27.370Z,11.87
2018-07-26T05:08:56.004Z,11.97
2018-07-26T05:11:24.745Z,11.63
2018-07-26T05:13:53.373Z,12.23
2018-07-26T05:16:22.024Z,12.13
2018-07-26T05:18:50.651Z,12.27
2018-07-26T05:21:19.634Z,11.97
2018-07-26T05:23:48.310Z,12.23
2018-07-26T05:26:17.049Z,12.57
2018-07-26T05:28:45.801Z,12.17
2018-07-26T05:31:14.580Z,11.57
2018-07-26T05:33:43.701Z,12.87
2018-07-26T05:36:12.475Z,12.40
2018-07-26T05:38:41.213Z,12.93
2018-07-26T05:41:09.862Z,12.80
2018-07-26T05:43:38.645Z,13.23
2018-07-26T05:46:07.835Z,12.43
2018-07-26T05:48:36.538Z,12.97
2018-07-26T05:51:05.193Z,12.43
2018-07-26T05:53:33.993Z,12.07
2018-07-26T05:56:02.714Z,11.90
2018-07-26T05:58:31.468Z,12.40
2018-07-26T06:01:00.255Z,11.87
2018-07-26T06:03:28.934Z,11.80
2018-07-26T06:05:57.929Z,11.90
2018-07-26T06:08:26.609Z,11.93
2018-07-26T06:10:55.414Z,12.03
2018-07-26T06:13:24.078Z,12.57
2018-07-26T06:15:52.792Z,12.87
2018-07-26T06:18:21.509Z,12.37
2018-07-26T06:20:50.592Z,12.23
2018-07-26T06:23:20.007Z,11.50
2018-07-26T06:25:48.770Z,13.10
2018-07-26T06:28:17.593Z,11.70
2018-07-26T06:30:46.291Z,13.10
2018-07-26T06:33:15.016Z,11.43
2018-07-26T06:35:43.890Z,11.60
2018-07-26T06:38:12.673Z,10.57
2018-07-26T06:40:41.368Z,11.07
2018-07-26T06:43:10.020Z,10.87
2018-07-26T06:45:38.734Z,10.65
2018-07-26T06:48:07.574Z,10.50
2018-07-26T06:50:36.550Z,10.05
2018-07-26T06:53:05.365Z,9.85
2018-07-26T06:55:34.513Z,10.20
2018-07-26T06:58:03.050Z,9.50
2018-07-26T07:00:31.601Z,9.05
2018-07-26T07:03:00.211Z,9.78
2018-07-26T07:05:28.768Z,9.73
2018-07-26T07:07:57.318Z,9.83
2018-07-26T07:10:25.761Z,11.20
2018-07-26T07:12:54.800Z,10.90
2018-07-26T07:15:23.371Z,9.30
2018-07-26T07:17:51.891Z,9.23
2018-07-26T07:20:20.398Z,10.28
2018-07-26T07:22:49.421Z,8.05
2018-07-26T07:25:18.063Z,8.70
2018-07-26T07:27:46.920Z,8.03
2018-07-26T07:30:15.456Z,8.10
2018-07-26T07:32:44.028Z,7.42
2018-07-26T07:35:12.714Z,7.10
2018-07-26T07:37:41.448Z,10.00
2018-07-26T07:40:10.589Z,6.45
2018-07-26T07:42:39.519Z,7.47
2018-07-26T07:45:08.592Z,6.80
2018-07-26T07:47:37.575Z,6.00
2018-07-26T07:50:06.380Z,5.60
2018-07-26T07:52:35.038Z,4.97
2018-07-26T07:57:54.695Z,4.60
2018-07-26T08:00:23.509Z,4.42
2018-07-26T08:02:52.313Z,4.33
2018-07-26T08:05:21.179Z,5.35
2018-07-26T08:07:50.136Z,4.10
2018-07-26T08:10:18.897Z,4.28
2018-07-26T08:12:49.574Z,4.40
2018-07-26T08:15:18.646Z,4.85
2018-07-26T08:17:48.477Z,4.47
2018-07-26T08:20:19.311Z,4.20
2018-07-26T08:22:50.157Z,4.35
2018-07-26T08:25:19.413Z,4.37
2018-07-26T08:27:51.317Z,4.10
2018-07-26T08:30:21.407Z,4.00
2018-07-26T08:32:51.341Z,3.95
2018-07-26T08:35:23.301Z,4.22
2018-07-26T08:37:52.566Z,4.22
2018-07-26T08:40:22.212Z,4.12
2018-07-26T08:42:51.611Z,4.17
2018-07-26T08:45:22.044Z,3.98
2018-07-26T08:47:51.569Z,4.22
2018-07-26T08:50:20.643Z,3.90
2018-07-26T08:52:49.841Z,4.12
2018-07-26T08:55:18.990Z,4.00
2018-07-26T08:57:49.222Z,3.98
2018-07-26T09:00:19.147Z,4.35
2018-07-26T09:02:51.568Z,4.22
2018-07-26T09:05:25.770Z,4.17
2018-07-26T09:07:55.355Z,4.10
2018-07-26T09:10:24.782Z,4.37
2018-07-26T09:12:54.355Z,3.87
2018-07-26T09:15:24.094Z,3.87
2018-07-26T09:17:53.120Z,4.62
2018-07-26T09:20:22.918Z,4.20
2018-07-26T09:22:52.180Z,3.60
2018-07-26T09:25:22.479Z,4.00
2018-07-26T09:27:52.520Z,4.12
2018-07-26T09:30:21.487Z,4.20
2018-07-26T09:32:50.978Z,4.30
2018-07-26T09:35:20.100Z,4.62
2018-07-26T09:37:49.615Z,3.72
2018-07-26T09:40:18.960Z,3.45
2018-07-26T09:42:47.662Z,4.37
2018-07-26T09:45:16.227Z,4.50
2018-07-26T09:47:44.898Z,3.95
2018-07-26T09:50:13.602Z,4.22
2018-07-26T09:52:42.145Z,4.42
2018-07-26T09:55:12.929Z,3.80
2018-07-26T09:57:41.873Z,3.90
2018-07-26T10:00:10.871Z,4.25
2018-07-26T10:02:39.837Z,4.00
2018-07-26T10:05:08.714Z,3.72
2018-07-26T10:14:30.922Z,3.90
2018-07-26T10:17:00.612Z,4.08
2018-07-26T10:19:31.079Z,4.15
2018-07-26T10:22:01.524Z,3.92
2018-07-26T10:24:30.940Z,3.62
2018-07-26T10:27:01.341Z,4.30
2018-07-26T10:29:30.770Z,4.45
2018-07-26T10:32:00.349Z,4.37
2018-07-26T10:37:06.952Z,4.33
2018-07-26T10:39:37.822Z,3.60
2018-07-26T10:42:07.378Z,3.67
2018-07-26T10:44:38.071Z,4.30
2018-07-26T10:47:08.514Z,4.42
2018-07-26T10:49:42.672Z,3.35
2018-07-26T10:52:13.005Z,3.72
2018-07-26T10:54:43.202Z,3.77
2018-07-26T10:57:12.893Z,3.80
2018-07-26T10:59:42.310Z,4.28
2018-07-26T11:02:14.571Z,3.87
2018-07-26T11:04:49.036Z,3.65
2018-07-26T11:07:19.872Z,5.20
2018-07-26T11:09:49.870Z,4.30
2018-07-26T11:12:20.301Z,3.50
2018-07-26T11:14:49.782Z,4.03
2018-07-26T11:17:22.168Z,4.00
2018-07-26T11:19:56.515Z,4.28
2018-07-26T11:22:25.239Z,4.08
2018-07-26T11:24:56.688Z,4.15
2018-07-26T11:27:26.404Z,4.28
2018-07-26T11:29:55.294Z,4.08
2018-07-26T11:32:24.332Z,4.25
2018-07-26T11:34:53.179Z,3.92
2018-07-26T11:37:22.055Z,3.72
2018-07-26T11:39:50.771Z,3.80
2018-07-26T11:42:19.547Z,3.92
2018-07-26T11:44:48.371Z,4.25
2018-07-26T11:47:17.258Z,4.12
2018-07-26T11:49:46.069Z,3.90
2018-07-26T11:52:14.868Z,3.90
2018-07-26T11:54:43.646Z,4.12
2018-07-26T11:57:12.461Z,4.17
2018-07-26T11:59:41.189Z,4.67
2018-07-26T12:02:10.233Z,4.33
2018-07-26T12:04:39.104Z,4.05
2018-07-26T12:07:08.155Z,3.83
2018-07-26T12:09:37.364Z,3.33
2018-07-26T12:12:06.318Z,3.65
2018-07-26T12:14:35.108Z,3.70
2018-07-26T12:17:03.683Z,3.62
2018-07-26T12:19:32.478Z,4.15
2018-07-26T12:22:01.157Z,3.60
2018-07-26T12:24:29.836Z,3.65
2018-07-26T12:26:58.460Z,4.08
2018-07-26T12:29:27.172Z,4.10
2018-07-26T12:31:55.789Z,3.98
2018-07-26T12:34:24.623Z,3.55
2018-07-26T12:36:53.463Z,4.25
2018-07-26T12:39:22.109Z,4.20
2018-07-26T12:41:50.727Z,3.42
2018-07-26T12:44:19.670Z,3.50
2018-07-26T12:46:48.296Z,3.65
2018-07-26T12:49:16.912Z,4.05
2018-07-26T12:51:45.534Z,3.85
2018-07-26T12:54:15.239Z,3.85
2018-07-26T12:56:43.949Z,3.80
2018-07-26T12:59:12.673Z,4.33
2018-07-26T13:01:41.317Z,3.67
2018-07-26T13:04:09.987Z,4.00
2018-07-26T13:06:38.635Z,3.58
2018-07-26T13:09:08.833Z,3.40
2018-07-26T13:11:37.680Z,3.37
2018-07-26T13:14:07.033Z,4.10
2018-07-26T13:16:35.613Z,3.42
2018-07-26T13:19:04.272Z,7.10
2018-07-26T13:21:32.871Z,3.70
2018-07-26T13:24:01.600Z,3.60
2018-07-26T13:26:30.247Z,3.67
2018-07-26T13:28:58.775Z,3.70
2018-07-26T13:31:27.463Z,3.40
2018-07-26T13:33:56.128Z,3.60
2018-07-26T13:36:25.205Z,3.30
2018-07-26T13:38:53.745Z,3.10
2018-07-26T13:41:22.283Z,3.72
2018-07-26T13:43:50.779Z,3.20
2018-07-26T13:46:19.458Z,3.12
2018-07-26T13:48:48.052Z,3.10
2018-07-26T13:51:16.746Z,3.20
2018-07-26T13:53:45.555Z,2.95
2018-07-26T13:56:14.455Z,2.92
2018-07-26T13:58:43.037Z,2.92
2018-07-26T14:01:11.683Z,3.00
2018-07-26T14:03:40.416Z,2.60
2018-07-26T14:06:09.056Z,3.10
2018-07-26T14:08:37.776Z,3.30
2018-07-26T14:11:06.429Z,3.15
2018-07-26T14:13:35.143Z,3.17
2018-07-26T14:16:03.955Z,3.00
2018-07-26T14:18:32.828Z,3.12
2018-07-26T14:21:01.581Z,2.70
2018-07-26T14:23:35.450Z,2.85
2018-07-26T14:26:04.133Z,2.92
2018-07-26T14:28:32.833Z,2.70
2018-07-26T14:31:01.516Z,2.67
2018-07-26T14:33:30.090Z,2.70
2018-07-26T14:35:59.133Z,2.85
2018-07-26T14:38:27.920Z,2.67
2018-07-26T14:40:56.850Z,2.58
2018-07-26T14:43:25.558Z,3.02
2018-07-26T14:45:54.536Z,3.40
2018-07-26T14:48:24.077Z,2.67
2018-07-26T14:50:53.040Z,3.62
2018-07-26T14:53:21.987Z,2.72
2018-07-26T14:55:50.765Z,3.10
2018-07-26T14:58:19.703Z,3.02
2018-07-26T15:00:49.121Z,2.83
2018-07-26T15:03:18.144Z,3.45
2018-07-26T15:05:46.911Z,2.65
2018-07-26T15:08:15.838Z,2.40
2018-07-26T15:10:44.560Z,3.45
2018-07-26T15:13:13.274Z,3.00
2018-07-26T15:15:42.005Z,2.65
2018-07-26T15:18:10.979Z,3.02
2018-07-26T15:20:39.699Z,2.70
2018-07-26T15:23:08.484Z,3.70
2018-07-26T15:25:37.395Z,3.15
2018-07-26T15:28:06.209Z,3.15
2018-07-26T15:30:35.515Z,2.67
2018-07-26T15:33:04.464Z,5.55
2018-07-26T15:35:33.200Z,2.52
2018-07-26T15:38:02.067Z,3.08
2018-07-26T15:40:30.952Z,2.77
2018-07-26T15:42:59.961Z,4.60
2018-07-26T15:45:28.862Z,2.77
2018-07-26T15:47:57.632Z,4.03
2018-07-26T15:50:26.477Z,3.90
2018-07-26T15:52:55.481Z,4.20
2018-07-26T15:55:24.270Z,11.57
2018-07-26T15:57:53.086Z,10.78
2018-07-26T16:00:21.772Z,2.92
2018-07-26T16:02:50.435Z,2.72
2018-07-26T16:05:19.091Z,2.80
2018-07-26T16:07:47.695Z,4.72
2018-07-26T16:10:16.258Z,3.90
2018-07-26T16:12:44.910Z,3.20
2018-07-26T16:15:13.681Z,2.92
2018-07-26T16:17:42.714Z,2.62
2018-07-26T16:20:12.190Z,2.85
2018-07-26T16:22:41.084Z,3.10
2018-07-26T16:25:11.106Z,2.72
2018-07-26T16:27:39.987Z,3.40
2018-07-26T16:30:10.684Z,3.15
2018-07-26T16:32:39.474Z,3.08
2018-07-26T16:35:08.646Z,2.95
2018-07-26T16:37:37.960Z,4.25
2018-07-26T16:40:07.380Z,3.00
2018-07-26T16:42:36.255Z,4.10
2018-07-26T16:45:06.131Z,3.22
2018-07-26T16:47:35.468Z,3.27
2018-07-26T16:50:04.314Z,3.40
2018-07-26T16:52:33.177Z,3.22
2018-07-26T16:55:01.932Z,4.42
2018-07-26T16:57:30.589Z,3.60
2018-07-26T16:59:59.160Z,3.20
2018-07-26T17:02:27.846Z,3.15
2018-07-26T17:04:56.702Z,3.30
2018-07-26T17:07:25.488Z,2.87
2018-07-26T17:09:54.828Z,3.12
2018-07-26T17:12:23.679Z,3.00
2018-07-26T17:14:52.300Z,3.10
2018-07-26T17:17:22.248Z,3.35
2018-07-26T17:19:50.831Z,3.75
2018-07-26T17:22:19.759Z,3.35
2018-07-26T17:24:48.431Z,3.25
2018-07-26T17:27:17.199Z,3.52
2018-07-26T17:29:46.131Z,4.00
2018-07-26T17:32:15.152Z,3.72
2018-07-26T17:34:44.513Z,3.35
2018-07-26T17:37:13.434Z,3.92
2018-07-26T17:39:42.620Z,3.55
2018-07-26T17:42:11.518Z,3.95
2018-07-26T17:44:40.912Z,3.22
2018-07-26T17:47:12.019Z,4.05
2018-07-26T17:49:41.477Z,3.37
2018-07-26T17:52:10.124Z,4.05
2018-07-26T17:54:38.828Z,3.60
2018-07-26T17:57:07.355Z,5.83
2018-07-26T17:59:35.988Z,5.33
2018-07-26T18:02:05.392Z,3.25
2018-07-26T18:04:34.103Z,7.83
2018-07-26T18:07:02.776Z,6.33
2018-07-26T18:09:31.390Z,6.30
2018-07-26T18:12:00.279Z,7.22
2018-07-26T18:14:28.873Z,5.08
2018-07-26T18:16:57.588Z,4.90
2018-07-26T18:19:26.379Z,4.92
2018-07-26T18:21:57.921Z,4.37
2018-07-26T18:24:26.648Z,3.70
2018-07-26T18:26:55.239Z,4.58
2018-07-26T18:29:23.937Z,3.92
2018-07-26T18:31:52.557Z,4.20
2018-07-26T18:34:23.966Z,4.17
2018-07-26T18:36:52.901Z,5.60
2018-07-26T18:39:21.540Z,4.23
2018-07-26T18:41:50.177Z,3.30
2018-07-26T18:44:18.784Z,3.30
2018-07-26T18:46:47.439Z,3.27
2018-07-26T18:49:16.108Z,3.80
2018-07-26T18:51:44.655Z,4.20
2018-07-26T18:54:13.246Z,2.80
2018-07-26T18:56:41.822Z,3.50
2018-07-26T18:59:10.424Z,4.20
2018-07-26T19:01:39.006Z,3.70
2018-07-26T19:04:07.663Z,3.70
2018-07-26T19:06:36.262Z,3.50
2018-07-26T19:09:08.131Z,3.50
2018-07-26T19:11:36.681Z,3.17
2018-07-26T19:14:05.434Z,3.60
2018-07-26T19:16:34.105Z,3.20
2018-07-26T19:19:02.905Z,3.70
2018-07-26T19:21:31.851Z,4.27
2018-07-26T19:24:00.429Z,4.40
2018-07-26T19:26:28.988Z,3.63
2018-07-26T19:28:57.705Z,3.47
2018-07-26T19:31:26.277Z,3.67
2018-07-26T19:33:55.040Z,3.50
2018-07-26T19:36:23.622Z,3.50
2018-07-26T19:38:52.303Z,3.90
2018-07-26T19:41:20.838Z,3.80
2018-07-26T19:43:49.427Z,4.37
2018-07-26T19:46:18.016Z,4.20
2018-07-26T19:48:46.630Z,4.10
2018-07-26T19:51:15.215Z,4.00
2018-07-26T19:53:43.867Z,4.20
2018-07-26T19:56:12.380Z,3.87
2018-07-26T19:58:41.049Z,4.17
2018-07-26T20:01:09.717Z,4.00
2018-07-26T20:03:38.254Z,3.80
2018-07-26T20:06:06.911Z,4.17
2018-07-26T20:08:35.426Z,4.10
2018-07-26T20:11:04.100Z,4.57
2018-07-26T20:13:32.715Z,4.20
2018-07-26T20:16:01.317Z,4.10
2018-07-26T20:18:29.915Z,4.00
2018-07-26T20:20:58.514Z,4.50
2018-07-26T20:23:27.056Z,4.10
2018-07-26T20:25:55.691Z,4.23
2018-07-26T20:28:24.551Z,4.33
2018-07-26T20:30:53.344Z,4.87
2018-07-26T20:33:21.898Z,4.50
2018-07-26T20:35:50.440Z,4.40
2018-07-26T20:38:19.037Z,4.73
2018-07-26T20:40:47.596Z,4.40
2018-07-26T20:43:16.286Z,4.80
2018-07-26T20:45:44.865Z,4.30
2018-07-26T20:48:13.496Z,4.90
2018-07-26T20:50:42.137Z,5.00
2018-07-26T20:53:10.667Z,4.97
2018-07-26T20:55:39.375Z,4.70
2018-07-26T20:58:08.045Z,4.70
2018-07-26T21:00:36.736Z,4.10
2018-07-26T21:03:05.537Z,4.50
2018-07-26T21:05:34.165Z,4.80
2018-07-26T21:08:02.844Z,5.17
2018-07-26T21:10:31.489Z,4.80
2018-07-26T21:13:00.168Z,5.47
2018-07-26T21:15:28.858Z,5.60
2018-07-26T21:17:57.483Z,5.13
2018-07-26T21:20:26.167Z,5.23
2018-07-26T21:22:54.803Z,5.63
2018-07-26T21:25:23.563Z,6.17
2018-07-26T21:27:52.258Z,5.30
2018-07-26T21:30:20.841Z,5.37
2018-07-26T21:32:49.572Z,5.43
2018-07-26T21:35:18.253Z,5.50
2018-07-26T21:37:46.908Z,5.30
2018-07-26T21:40:15.570Z,4.77
2018-07-26T21:42:44.227Z,5.40
2018-07-26T21:45:12.868Z,5.10
2018-07-26T21:47:41.587Z,4.63
2018-07-26T21:50:10.391Z,5.27
2018-07-26T21:52:39.047Z,5.07
2018-07-26T21:55:07.861Z,5.27
2018-07-26T21:57:36.613Z,5.10
2018-07-26T22:00:08.532Z,5.13
2018-07-26T22:02:37.331Z,5.37
2018-07-26T22:05:06.239Z,5.07
2018-07-26T22:07:34.947Z,5.40
2018-07-26T22:10:03.713Z,5.37
2018-07-26T22:12:32.364Z,5.50
2018-07-26T22:15:01.127Z,4.80
2018-07-26T22:17:29.754Z,5.23
2018-07-26T22:19:58.639Z,4.80
2018-07-26T22:22:27.363Z,5.53
2018-07-26T22:24:56.432Z,5.13
2018-07-26T22:27:25.217Z,4.53
2018-07-26T22:29:53.961Z,5.13
2018-07-26T22:32:22.896Z,4.60
2018-07-26T22:34:51.758Z,4.17
2018-07-26T22:37:20.520Z,4.03
2018-07-26T22:39:49.100Z,4.27
2018-07-26T22:42:17.723Z,4.70
2018-07-26T22:44:46.311Z,5.03
2018-07-26T22:47:14.872Z,4.23
2018-07-26T22:49:43.452Z,4.80
2018-07-26T22:52:12.153Z,5.10
2018-07-26T22:54:40.732Z,4.17
2018-07-26T22:57:09.354Z,5.33
2018-07-26T22:59:37.987Z,4.10
2018-07-26T23:02:06.652Z,3.80
2018-07-26T23:04:35.332Z,4.63
2018-07-26T23:07:04.024Z,4.63
2018-07-26T23:09:32.655Z,4.10
2018-07-26T23:12:01.411Z,3.93
2018-07-26T23:14:30.024Z,3.70
2018-07-26T23:16:58.734Z,3.40
2018-07-26T23:19:27.382Z,3.50
2018-07-26T23:21:56.127Z,3.40
2018-07-26T23:24:24.763Z,3.93
2018-07-26T23:26:53.330Z,3.80
2018-07-26T23:29:21.950Z,4.00
2018-07-26T23:31:50.606Z,3.87
2018-07-26T23:34:19.307Z,3.73
2018-07-26T23:36:47.867Z,4.00
2018-07-26T23:39:16.476Z,3.80
2018-07-26T23:41:45.156Z,3.83
2018-07-26T23:44:13.805Z,3.90
2018-07-26T23:46:42.412Z,4.43
2018-07-26T23:49:10.995Z,3.93
2018-07-26T23:51:39.730Z,4.40
2018-07-26T23:54:08.339Z,4.83
2018-07-26T23:56:37.064Z,3.80
2018-07-26T23:59:05.768Z,4.37
